Time;durP1;ratioP1;P1;durP2;ratioP2;P2;SDS_P1;SDS_P2;PMS_P1;PMS_P2;Temp;Humidity;BMP_temperature;BMP_pressure;BME280_temperature;BME280_humidity;BME280_pressure;Samples;Min_cycle;Max_cycle;Signal;HPM_P1;HPM_P2
2020/12/10 00:01:50;;;;;;;42.40;21.73;;;;;;;;;;5060456;28;20092;-91
2020/12/10 00:04:16;;;;;;;44.57;21.87;;;;;;;;;;5059613;28;20448;-91
2020/12/10 00:06:42;;;;;;;50.00;22.57;;;;;;;;;;5060829;28;20071;-91
2020/12/10 00:09:15;;;;;;;45.93;22.37;;;;;;;;;;5059551;28;20028;-91
2020/12/10 00:11:41;;;;;;;48.47;23.50;;;;;;;;;;5059008;28;20092;-91
2020/12/10 00:14:12;;;;;;;51.40;23.10;;;;;;;;;;5060142;28;20064;-90
2020/12/10 00:16:45;;;;;;;50.30;21.98;;;;;;;;;;5060009;28;20028;-90
2020/12/10 00:19:11;;;;;;;48.00;22.47;;;;;;;;;;5059976;28;20394;-90
2020/12/10 00:21:37;;;;;;;48.23;22.83;;;;;;;;;;5060202;28;20033;-90
2020/12/10 00:24:06;;;;;;;45.13;23.30;;;;;;;;;;5060488;28;20040;-90
2020/12/10 00:26:32;;;;;;;44.17;21.83;;;;;;;;;;5058572;28;20527;-90
2020/12/10 00:28:58;;;;;;;45.90;22.53;;;;;;;;;;5057704;28;20116;-90
2020/12/10 00:31:24;;;;;;;49.27;23.60;;;;;;;;;;5058316;28;20070;-90
2020/12/10 00:33:53;;;;;;;46.50;21.93;;;;;;;;;;5059153;28;20397;-90
2020/12/10 00:36:19;;;;;;;50.67;23.87;;;;;;;;;;5059241;28;20025;-91
2020/12/10 00:38:45;;;;;;;47.27;23.40;;;;;;;;;;5059731;28;20036;-90
2020/12/10 00:41:11;;;;;;;52.43;23.83;;;;;;;;;;5058960;28;20394;-90
2020/12/10 00:43:40;;;;;;;50.63;23.43;;;;;;;;;;5059575;28;20032;-90
2020/12/10 00:46:06;;;;;;;53.23;24.20;;;;;;;;;;5059231;28;20074;-89
2020/12/10 00:48:38;;;;;;;51.00;23.00;;;;;;;;;;5059317;28;20032;-90
2020/12/10 00:51:04;;;;;;;37.28;17.83;;;;;;;;;;5059692;28;20087;-89
2020/12/10 00:53:43;;;;;;;52.97;23.27;;;;;;;;;;5060303;28;20033;-90
2020/12/10 00:56:10;;;;;;;52.00;24.37;;;;;;;;;;5059417;28;20530;-90
2020/12/10 00:58:36;;;;;;;49.77;24.33;;;;;;;;;;5060193;28;20036;-90
2020/12/10 01:01:02;;;;;;;51.57;23.77;;;;;;;;;;5058961;28;20032;-90
2020/12/10 01:03:31;;;;;;;53.43;24.10;;;;;;;;;;5059523;28;20048;-89
2020/12/10 01:05:57;;;;;;;51.53;23.83;;;;;;;;;;5058879;28;20033;-90
2020/12/10 01:08:23;;;;;;;46.80;23.90;;;;;;;;;;5066052;28;20178;-91
2020/12/10 01:10:49;;;;;;;53.33;23.80;;;;;;;;;;5079815;28;20028;-90
2020/12/10 01:13:15;;;;;;;51.40;24.63;;;;;;;;;;5079115;28;20032;-91
2020/12/10 01:15:41;;;;;;;49.17;21.90;;;;;;;;;;5079464;28;20021;-91
2020/12/10 01:18:07;;;;;;;46.33;22.33;;;;;;;;;;5084568;28;20024;-91
2020/12/10 01:20:33;;;;;;;46.27;22.43;;;;;;;;;;5078423;28;20048;-90
2020/12/10 01:22:59;;;;;;;44.63;22.73;;;;;;;;;;5078967;28;20028;-90
2020/12/10 01:25:25;;;;;;;45.40;21.33;;;;;;;;;;5076672;28;20384;-91
2020/12/10 01:27:51;;;;;;;45.83;20.97;;;;;;;;;;5077265;28;20031;-91
2020/12/10 01:30:16;;;;;;;40.50;21.10;;;;;;;;;;5076359;28;20052;-91
2020/12/10 01:32:42;;;;;;;44.80;20.60;;;;;;;;;;5080119;28;20531;-91
2020/12/10 01:35:09;;;;;;;44.67;19.97;;;;;;;;;;5078825;28;20101;-90
2020/12/10 01:37:35;;;;;;;38.40;20.17;;;;;;;;;;5080466;28;20025;-91
2020/12/10 01:40:02;;;;;;;40.27;20.53;;;;;;;;;;5084999;28;20026;-90
2020/12/10 01:42:28;;;;;;;40.10;19.67;;;;;;;;;;5091609;28;20035;-91
2020/12/10 01:44:54;;;;;;;37.40;18.80;;;;;;;;;;5092840;28;20048;-91
2020/12/10 01:47:21;;;;;;;43.00;19.27;;;;;;;;;;5084799;28;20596;-90
2020/12/10 01:49:48;;;;;;;41.47;19.33;;;;;;;;;;5078276;28;20466;-90
2020/12/10 01:52:14;;;;;;;37.73;18.50;;;;;;;;;;5077879;28;20024;-90
2020/12/10 01:54:40;;;;;;;41.37;19.70;;;;;;;;;;5076630;28;20093;-91
2020/12/10 01:57:06;;;;;;;43.77;20.47;;;;;;;;;;5076560;28;20082;-91
2020/12/10 01:59:32;;;;;;;38.30;18.60;;;;;;;;;;5076263;28;20338;-91
2020/12/10 02:01:58;;;;;;;37.37;18.83;;;;;;;;;;5076338;28;20038;-90
2020/12/10 02:04:34;;;;;;;36.23;18.07;;;;;;;;;;5075791;28;20060;-91
2020/12/10 05:55:26;;;;;;;48.73;21.50;;;;;;;;;;5078183;28;20056;-92
2020/12/10 05:57:54;;;;;;;53.10;22.63;;;;;;;;;;5090179;28;20047;-92
2020/12/10 06:00:20;;;;;;;50.37;22.10;;;;;;;;;;5082179;28;20128;-92
2020/12/10 06:02:46;;;;;;;53.60;23.80;;;;;;;;;;5043032;28;20065;-92
2020/12/10 06:05:14;;;;;;;57.63;23.93;;;;;;;;;;5067794;28;20049;-91
2020/12/10 06:07:40;;;;;;;53.40;23.27;;;;;;;;;;5070854;28;20022;-93
2020/12/10 06:10:06;;;;;;;46.90;22.10;;;;;;;;;;5075820;22;20066;-91
2020/12/10 06:12:32;;;;;;;57.60;23.77;;;;;;;;;;5060856;28;20056;-91
2020/12/10 06:14:58;;;;;;;59.43;23.93;;;;;;;;;;5071202;28;20028;-91
2020/12/10 06:17:25;;;;;;;58.77;24.10;;;;;;;;;;5072365;28;20021;-93
2020/12/10 06:19:53;;;;;;;58.83;23.50;;;;;;;;;;5055396;28;20033;-91
2020/12/10 06:22:36;;;;;;;50.03;22.67;;;;;;;;;;5074815;28;20028;-92
2020/12/10 06:25:04;;;;;;;56.87;23.73;;;;;;;;;;5076149;28;20116;-91
2020/12/10 06:27:34;;;;;;;51.57;22.80;;;;;;;;;;5069186;28;20370;-92
2020/12/10 06:30:31;;;;;;;54.77;23.53;;;;;;;;;;5052875;28;20021;-90
2020/12/10 06:32:57;;;;;;;50.07;21.80;;;;;;;;;;5052426;28;20060;-90
2020/12/10 06:35:34;;;;;;;51.10;21.70;;;;;;;;;;5043355;28;20028;-92
2020/12/10 06:38:01;;;;;;;53.90;22.30;;;;;;;;;;5065608;28;20047;-89
2020/12/10 06:40:28;;;;;;;49.27;22.30;;;;;;;;;;5071550;28;20032;-92
2020/12/10 06:42:54;;;;;;;52.87;23.03;;;;;;;;;;5080469;28;20036;-90
2020/12/10 06:45:23;;;;;;;51.20;22.60;;;;;;;;;;5086199;28;20033;-92
2020/12/10 06:47:49;;;;;;;49.10;22.47;;;;;;;;;;5074344;28;20013;-91
2020/12/10 06:50:23;;;;;;;50.13;22.63;;;;;;;;;;5070157;28;20467;-92
2020/12/10 06:53:11;;;;;;;50.87;22.50;;;;;;;;;;5063109;28;20039;-93
2020/12/10 06:56:05;;;;;;;53.00;22.93;;;;;;;;;;5070398;28;20095;-93
2020/12/10 06:58:35;;;;;;;56.17;23.57;;;;;;;;;;5061575;28;20090;-91
2020/12/10 07:01:21;;;;;;;61.53;24.37;;;;;;;;;;5077764;28;20095;-90
2020/12/10 07:03:48;;;;;;;54.77;23.00;;;;;;;;;;5083524;28;20029;-86
2020/12/10 07:06:19;;;;;;;56.00;27.27;;;;;;;;;;5075640;28;20013;-90
2020/12/10 07:09:04;;;;;;;56.17;23.33;;;;;;;;;;5069806;28;20032;-91
2020/12/10 07:11:34;;;;;;;54.80;24.47;;;;;;;;;;5062440;28;20080;-92
2020/12/10 07:14:01;;;;;;;52.53;23.00;;;;;;;;;;5055039;28;20021;-92
2020/12/10 07:16:31;;;;;;;56.10;24.40;;;;;;;;;;5074607;28;20041;-92
2020/12/10 07:18:58;;;;;;;56.03;23.53;;;;;;;;;;5071536;28;20025;-92
2020/12/10 07:21:24;;;;;;;57.30;24.57;;;;;;;;;;5072792;28;20430;-92
2020/12/10 07:23:51;;;;;;;61.63;24.73;;;;;;;;;;5069777;28;20088;-92
2020/12/10 07:26:17;;;;;;;56.90;25.27;;;;;;;;;;5052717;28;20307;-92
2020/12/10 07:28:46;;;;;;;55.57;23.77;;;;;;;;;;5053940;28;20021;-92
2020/12/10 07:31:16;;;;;;;58.53;24.47;;;;;;;;;;5049256;28;20190;-92
2020/12/10 07:33:43;;;;;;;55.80;23.93;;;;;;;;;;5055088;28;20033;-92
2020/12/10 07:36:09;;;;;;;55.67;24.57;;;;;;;;;;5050796;28;20090;-93
2020/12/10 07:38:35;;;;;;;57.03;23.67;;;;;;;;;;5053442;28;20025;-93
2020/12/10 07:41:01;;;;;;;50.50;23.00;;;;;;;;;;5054410;28;20029;-92
2020/12/10 07:43:27;;;;;;;52.93;23.93;;;;;;;;;;5054399;28;20381;-92
2020/12/10 07:45:54;;;;;;;54.97;23.97;;;;;;;;;;5055388;28;20036;-93
2020/12/10 07:48:20;;;;;;;54.07;22.53;;;;;;;;;;5053550;28;20029;-91
2020/12/10 07:50:48;;;;;;;53.03;24.00;;;;;;;;;;5054766;28;20083;-92
2020/12/10 07:53:14;;;;;;;51.87;23.27;;;;;;;;;;5057978;28;20021;-92
2020/12/10 07:55:59;;;;;;;50.70;22.97;;;;;;;;;;5055838;28;20025;-91
2020/12/10 07:58:28;;;;;;;52.87;22.60;;;;;;;;;;5054945;28;20033;-92
2020/12/10 08:00:55;;;;;;;48.70;22.13;;;;;;;;;;5055671;28;20033;-92
2020/12/10 08:03:21;;;;;;;53.73;23.93;;;;;;;;;;5066877;28;20038;-92
2020/12/10 08:05:56;;;;;;;54.63;22.90;;;;;;;;;;5075166;28;20040;-93
2020/12/10 08:08:43;;;;;;;51.73;22.37;;;;;;;;;;5074583;28;20025;-92
2020/12/10 08:11:17;;;;;;;52.27;22.47;;;;;;;;;;5074872;28;20033;-92
2020/12/10 08:13:53;;;;;;;56.47;23.27;;;;;;;;;;5082110;28;20009;-91
2020/12/10 08:16:19;;;;;;;53.60;23.33;;;;;;;;;;5096520;28;20016;-91
2020/12/10 08:18:45;;;;;;;54.13;22.80;;;;;;;;;;5083662;28;20033;-90
2020/12/10 08:21:11;;;;;;;48.10;22.73;;;;;;;;;;5056980;28;20481;-92
2020/12/10 08:23:46;;;;;;;57.27;23.63;;;;;;;;;;5061916;28;20039;-93
2020/12/10 08:26:13;;;;;;;49.93;22.20;;;;;;;;;;5062530;28;20569;-93
2020/12/10 08:28:40;;;;;;;46.10;21.67;;;;;;;;;;5092768;28;20123;-93
2020/12/10 08:31:06;;;;;;;50.40;22.60;;;;;;;;;;5092563;28;20561;-93
2020/12/10 08:33:36;;;;;;;43.90;20.90;;;;;;;;;;5078415;28;20033;-93
2020/12/10 08:36:02;;;;;;;41.53;20.97;;;;;;;;;;5074128;28;20032;-93
2020/12/10 08:38:28;;;;;;;38.77;19.57;;;;;;;;;;5058007;28;20041;-93
2020/12/10 08:40:55;;;;;;;45.83;22.00;;;;;;;;;;5050880;28;20036;-92
2020/12/10 08:43:21;;;;;;;40.87;19.70;;;;;;;;;;5058582;28;20084;-92
2020/12/10 08:45:48;;;;;;;43.63;20.20;;;;;;;;;;5057815;28;20063;-92
2020/12/10 08:48:24;;;;;;;41.57;19.67;;;;;;;;;;5078565;28;20032;-93
2020/12/10 08:50:51;;;;;;;44.37;20.73;;;;;;;;;;5079618;28;20057;-93
2020/12/10 08:53:17;;;;;;;50.70;21.80;;;;;;;;;;5078920;28;20051;-92
2020/12/10 08:55:48;;;;;;;41.93;19.53;;;;;;;;;;5067768;28;20029;-93
2020/12/10 08:58:15;;;;;;;43.13;21.13;;;;;;;;;;5062201;28;20078;-93
2020/12/10 09:00:41;;;;;;;44.83;20.10;;;;;;;;;;5063443;28;20024;-93
2020/12/10 09:03:07;;;;;;;35.83;17.77;;;;;;;;;;5068630;28;20025;-93
2020/12/10 09:05:33;;;;;;;33.13;16.13;;;;;;;;;;5063823;28;20029;-93
2020/12/10 09:07:59;;;;;;;28.13;14.17;;;;;;;;;;5062370;28;20035;-93
2020/12/10 09:10:28;;;;;;;27.57;14.20;;;;;;;;;;5061849;28;20047;-93
2020/12/10 09:12:55;;;;;;;27.97;14.47;;;;;;;;;;5061640;28;20017;-93
2020/12/10 09:15:21;;;;;;;23.37;12.90;;;;;;;;;;5062870;28;20052;-93
2020/12/10 09:17:53;;;;;;;23.47;12.17;;;;;;;;;;5062236;28;20024;-93
2020/12/10 09:20:20;;;;;;;26.52;12.65;;;;;;;;;;5067044;28;20029;-93
2020/12/10 09:22:46;;;;;;;27.40;13.43;;;;;;;;;;5057973;28;20680;-93
2020/12/10 09:25:12;;;;;;;26.33;13.33;;;;;;;;;;5061567;28;20033;-93
2020/12/10 09:27:38;;;;;;;24.77;12.77;;;;;;;;;;5067658;28;20035;-92
2020/12/10 09:30:06;;;;;;;23.40;12.57;;;;;;;;;;5082550;28;20048;-91
2020/12/10 09:32:35;;;;;;;19.13;9.63;;;;;;;;;;5064334;28;20125;-93
2020/12/10 09:35:03;;;;;;;22.20;10.77;;;;;;;;;;5061201;28;20101;-93
2020/12/10 09:37:29;;;;;;;26.67;14.00;;;;;;;;;;5062171;28;20031;-93
2020/12/10 09:39:55;;;;;;;23.80;12.80;;;;;;;;;;5062475;28;20040;-92
2020/12/10 09:42:21;;;;;;;25.30;13.00;;;;;;;;;;5062851;28;20036;-92
2020/12/10 09:44:47;;;;;;;20.70;11.73;;;;;;;;;;5080530;28;20043;-93
2020/12/10 09:47:13;;;;;;;22.60;11.87;;;;;;;;;;5080790;28;20100;-92
2020/12/10 09:49:39;;;;;;;25.53;12.90;;;;;;;;;;5080781;28;20044;-93
2020/12/10 09:52:06;;;;;;;26.33;13.90;;;;;;;;;;5080238;28;20029;-92
2020/12/10 09:57:21;;;;;;;23.17;12.88;;;;;;;;;;5081655;28;20111;-93
2020/12/10 09:59:47;;;;;;;25.77;12.97;;;;;;;;;;5079364;28;20024;-93
2020/12/10 10:02:16;;;;;;;25.40;12.33;;;;;;;;;;5080554;28;20036;-94
2020/12/10 10:04:42;;;;;;;26.80;12.50;;;;;;;;;;5081518;28;20047;-91
2020/12/10 10:07:08;;;;;;;25.63;13.20;;;;;;;;;;5081167;28;20035;-93
2020/12/10 10:09:35;;;;;;;30.43;15.03;;;;;;;;;;5074833;28;20040;-93
2020/12/10 10:12:04;;;;;;;30.53;15.87;;;;;;;;;;5060749;28;20021;-93
2020/12/10 10:14:30;;;;;;;31.80;15.47;;;;;;;;;;5060340;28;20473;-92
2020/12/10 10:16:56;;;;;;;30.33;16.40;;;;;;;;;;5060755;28;20028;-92
2020/12/10 10:19:22;;;;;;;26.47;14.30;;;;;;;;;;5061406;28;20056;-93
2020/12/10 10:21:48;;;;;;;27.50;14.77;;;;;;;;;;5060721;28;20400;-91
2020/12/10 10:24:14;;;;;;;27.10;13.70;;;;;;;;;;5064828;28;20040;-93
2020/12/10 10:26:41;;;;;;;28.13;14.57;;;;;;;;;;5079512;28;20032;-92
2020/12/10 10:29:08;;;;;;;29.67;14.80;;;;;;;;;;5092027;28;20032;-91
2020/12/10 10:31:34;;;;;;;30.17;14.20;;;;;;;;;;5094623;28;20028;-92
2020/12/10 10:34:00;;;;;;;28.53;15.73;;;;;;;;;;5090879;28;20013;-91
2020/12/10 10:36:26;;;;;;;33.37;16.07;;;;;;;;;;5074921;28;20013;-91
2020/12/10 10:38:52;;;;;;;32.07;16.87;;;;;;;;;;5074778;28;20028;-91
2020/12/10 10:41:18;;;;;;;33.87;16.53;;;;;;;;;;5075146;28;20089;-91
2020/12/10 10:43:44;;;;;;;30.60;16.10;;;;;;;;;;5067674;28;20033;-91
2020/12/10 10:46:11;;;;;;;32.43;17.70;;;;;;;;;;5059814;28;20016;-93
2020/12/10 10:48:37;;;;;;;34.27;16.27;;;;;;;;;;5058779;28;20051;-92
2020/12/10 10:51:03;;;;;;;29.07;16.10;;;;;;;;;;5057834;28;20056;-93
2020/12/10 10:53:29;;;;;;;35.70;17.27;;;;;;;;;;5058803;28;20025;-92
2020/12/10 10:55:55;;;;;;;32.53;17.87;;;;;;;;;;5058916;28;20025;-94
2020/12/10 10:58:21;;;;;;;33.30;16.63;;;;;;;;;;5059363;28;20285;-93
2020/12/10 11:00:47;;;;;;;38.23;18.07;;;;;;;;;;5062518;28;20512;-93
2020/12/10 11:03:13;;;;;;;38.40;19.60;;;;;;;;;;5062662;28;20049;-92
2020/12/10 11:05:39;;;;;;;38.27;19.47;;;;;;;;;;5062758;28;20025;-93
2020/12/10 11:08:05;;;;;;;37.47;19.30;;;;;;;;;;5063042;28;20493;-93
2020/12/10 11:10:31;;;;;;;35.80;18.37;;;;;;;;;;5063048;28;20049;-92
2020/12/10 11:12:57;;;;;;;38.77;19.80;;;;;;;;;;5062164;28;20117;-93
2020/12/10 11:15:23;;;;;;;41.03;20.10;;;;;;;;;;5062060;28;20048;-92
2020/12/10 11:17:49;;;;;;;39.73;19.23;;;;;;;;;;5061864;28;20029;-93
2020/12/10 11:20:15;;;;;;;37.23;19.83;;;;;;;;;;5061455;28;20048;-93
2020/12/10 11:22:41;;;;;;;42.20;19.47;;;;;;;;;;5073536;28;20045;-93
2020/12/10 11:25:08;;;;;;;41.87;20.43;;;;;;;;;;5066595;28;20029;-94
2020/12/10 11:27:34;;;;;;;36.97;19.17;;;;;;;;;;5066989;28;20045;-94
2020/12/10 11:30:00;;;;;;;38.97;20.43;;;;;;;;;;5066657;28;20082;-93
2020/12/10 11:32:26;;;;;;;39.73;20.80;;;;;;;;;;5073126;28;20037;-94
2020/12/10 11:34:58;;;;;;;40.00;19.40;;;;;;;;;;5076922;28;20023;-94
2020/12/10 11:37:24;;;;;;;38.13;19.35;;;;;;;;;;5078428;28;20024;-94
2020/12/10 11:39:54;;;;;;;40.10;18.40;;;;;;;;;;5087333;28;20037;-91
2020/12/10 11:42:20;;;;;;;39.30;19.67;;;;;;;;;;5078218;28;20017;-92
2020/12/10 11:44:48;;;;;;;35.00;18.33;;;;;;;;;;5078282;28;20090;-93
2020/12/10 11:47:13;;;;;;;39.97;18.47;;;;;;;;;;5076733;28;20119;-91
2020/12/10 11:49:39;;;;;;;35.33;17.60;;;;;;;;;;5075403;28;20043;-92
2020/12/10 11:52:06;;;;;;;37.47;19.70;;;;;;;;;;5073228;28;20040;-92
2020/12/10 11:54:32;;;;;;;35.63;18.20;;;;;;;;;;5071262;28;20029;-90
2020/12/10 11:56:59;;;;;;;38.00;18.63;;;;;;;;;;5070562;28;20125;-93
2020/12/10 11:59:25;;;;;;;44.43;19.73;;;;;;;;;;5072626;28;20021;-94
2020/12/10 12:01:51;;;;;;;35.43;18.03;;;;;;;;;;5070944;28;20056;-94
2020/12/10 12:04:17;;;;;;;40.63;19.10;;;;;;;;;;5063649;28;20029;-94
2020/12/10 12:06:44;;;;;;;36.07;17.77;;;;;;;;;;5063083;28;20029;-94
2020/12/10 17:18:10;;;;;;;40.17;18.90;;;;;;;;;;5064334;28;20041;-87
2020/12/10 17:20:37;;;;;;;38.53;19.90;;;;;;;;;;5058915;28;20064;-87
2020/12/10 17:23:03;;;;;;;42.17;20.07;;;;;;;;;;5056125;28;20087;-88
2020/12/10 17:25:29;;;;;;;41.13;19.73;;;;;;;;;;5051235;28;20460;-87
2020/12/10 17:27:55;;;;;;;39.90;19.13;;;;;;;;;;5051950;28;20037;-87
2020/12/10 17:30:21;;;;;;;42.20;20.00;;;;;;;;;;5051415;28;20055;-86
2020/12/10 17:32:48;;;;;;;38.13;18.30;;;;;;;;;;5051725;28;20159;-87
2020/12/10 17:35:16;;;;;;;38.83;18.53;;;;;;;;;;5053091;28;20477;-88
2020/12/10 17:37:42;;;;;;;34.63;17.63;;;;;;;;;;5063259;28;20028;-86
2020/12/10 17:40:08;;;;;;;32.17;16.33;;;;;;;;;;5056064;28;20028;-87
2020/12/10 17:42:34;;;;;;;32.57;16.47;;;;;;;;;;5051110;28;20443;-87
2020/12/10 17:45:01;;;;;;;29.07;15.10;;;;;;;;;;5053744;28;20033;-86
2020/12/10 17:47:27;;;;;;;31.87;15.10;;;;;;;;;;5061852;28;20477;-87
2020/12/10 17:49:53;;;;;;;31.17;15.37;;;;;;;;;;5072405;28;20542;-87
2020/12/10 17:52:22;;;;;;;30.00;16.00;;;;;;;;;;5072276;28;20096;-87
2020/12/10 17:54:53;;;;;;;28.80;14.97;;;;;;;;;;5071886;28;20082;-87
2020/12/10 17:57:19;;;;;;;30.70;14.63;;;;;;;;;;5058348;28;20212;-86
2020/12/10 17:59:45;;;;;;;27.00;14.37;;;;;;;;;;5053845;28;20043;-87
2020/12/10 18:02:11;;;;;;;31.80;16.23;;;;;;;;;;5055651;28;20062;-87
2020/12/10 18:04:37;;;;;;;31.00;15.13;;;;;;;;;;5060557;28;20032;-87
2020/12/10 18:07:03;;;;;;;29.50;16.03;;;;;;;;;;5051463;28;20059;-87
2020/12/10 18:09:31;;;;;;;28.87;15.07;;;;;;;;;;5069347;28;20031;-87
2020/12/10 18:11:59;;;;;;;28.83;14.73;;;;;;;;;;5054125;28;20397;-87
2020/12/10 18:14:25;;;;;;;30.23;16.20;;;;;;;;;;5056384;28;20048;-87
2020/12/10 18:16:56;;;;;;;31.37;15.17;;;;;;;;;;5050836;28;20033;-87
2020/12/10 18:19:22;;;;;;;31.73;16.13;;;;;;;;;;5051896;28;20500;-86
2020/12/10 18:44:27;;;;;;;35.03;18.57;;;1.50;99.90;;;;;;6095297;22;4383486;-87
2020/12/10 18:46:58;;;;;;;34.47;18.53;;;1.60;99.90;;;;;;6280486;22;20091;-87
2020/12/10 18:49:24;;;;;;;35.80;17.20;;;1.50;99.90;;;;;;6280058;22;20456;-87
2020/12/10 18:52:10;;;;;;;35.63;18.87;;;1.60;99.90;;;;;;6281180;22;20454;-87
2020/12/10 18:54:36;;;;;;;35.17;18.03;;;1.50;99.90;;;;;;6283141;22;20046;-88
2020/12/10 18:57:03;;;;;;;35.57;17.83;;;1.50;99.90;;;;;;6282175;22;20003;-87
2020/12/10 18:59:32;;;;;;;36.30;19.17;;;1.50;99.90;;;;;;6282854;22;20095;-87
2020/12/10 19:02:00;;;;;;;37.00;18.73;;;1.50;99.90;;;;;;6283790;22;20061;-87
2020/12/10 19:04:26;;;;;;;37.03;17.97;;;1.50;99.90;;;;;;6283404;22;20011;-87
2020/12/10 19:06:52;;;;;;;39.90;19.40;;;1.50;99.90;;;;;;6282506;22;20743;-88
2020/12/10 19:09:18;;;;;;;34.87;17.67;;;1.50;99.90;;;;;;6282873;22;19999;-88
2020/12/10 19:11:45;;;;;;;36.27;17.60;;;1.50;99.90;;;;;;6282936;22;20000;-88
2020/12/10 19:14:12;;;;;;;38.97;19.53;;;1.50;99.90;;;;;;6283189;22;20398;-87
2020/12/10 19:16:39;;;;;;;35.93;18.63;;;1.60;99.90;;;;;;6281753;22;20342;-88
2020/12/10 19:19:11;;;;;;;39.60;18.80;;;1.50;99.90;;;;;;6282938;22;20014;-88
2020/12/10 19:21:39;;;;;;;36.23;18.23;;;1.50;99.90;;;;;;6283167;22;20035;-88
2020/12/10 19:24:05;;;;;;;36.70;19.00;;;1.60;99.90;;;;;;6284388;22;20011;-88
2020/12/10 19:26:31;;;;;;;37.53;19.40;;;1.60;99.90;;;;;;6287260;22;20004;-88
2020/12/10 19:28:57;;;;;;;40.27;20.03;;;1.60;99.90;;;;;;6283967;22;20006;-88
2020/12/10 19:31:26;;;;;;;36.87;18.43;;;1.50;99.90;;;;;;6282852;22;20551;-88
2020/12/10 19:33:52;;;;;;;37.93;19.03;;;1.50;99.90;;;;;;6283278;22;20000;-87
2020/12/10 19:36:18;;;;;;;36.23;19.13;;;1.50;99.90;;;;;;6281061;22;20057;-87
2020/12/10 19:38:44;;;;;;;35.43;19.03;;;1.50;99.90;;;;;;6274973;22;20003;-87
2020/12/10 19:41:13;;;;;;;36.67;18.10;;;1.50;99.90;;;;;;6276185;22;20007;-88
2020/12/10 19:43:39;;;;;;;38.17;18.73;;;1.60;99.90;;;;;;6275469;22;20015;-87
2020/12/10 19:46:06;;;;;;;37.17;18.83;;;1.50;99.90;;;;;;6276191;22;20091;-87
2020/12/10 19:48:32;;;;;;;40.37;19.00;;;1.60;99.90;;;;;;6275855;22;20457;-86
2020/12/10 19:51:00;;;;;;;32.87;17.67;;;1.50;99.90;;;;;;6275923;22;20492;-87
2020/12/10 19:53:25;;;;;;;29.23;15.53;;;1.50;99.90;;;;;;6274600;22;20022;-87
2020/12/10 19:55:51;;;;;;;35.47;17.97;;;1.50;99.90;;;;;;6276994;22;20004;-88
2020/12/10 19:58:17;;;;;;;32.17;16.63;;;1.60;99.90;;;;;;6276315;22;20007;-87
2020/12/10 20:00:42;;;;;;;31.43;17.00;;;1.60;99.90;;;;;;6275816;22;20004;-88
2020/12/10 20:03:11;;;;;;;30.37;17.00;;;1.60;99.90;;;;;;6277167;22;20071;-87
2020/12/10 20:05:38;;;;;;;32.60;17.03;;;1.50;99.90;;;;;;6276968;22;20094;-88
2020/12/10 20:08:04;;;;;;;34.77;16.73;;;1.60;99.90;;;;;;6276339;22;20004;-88
2020/12/10 20:10:30;;;;;;;32.63;17.40;;;1.60;99.90;;;;;;6275952;22;20011;-88
2020/12/10 20:12:56;;;;;;;33.97;18.07;;;1.60;99.90;;;;;;6276108;22;20111;-88
2020/12/10 20:15:22;;;;;;;30.40;16.30;;;1.60;99.90;;;;;;6276609;22;20475;-88
2020/12/10 20:17:49;;;;;;;32.77;16.37;;;1.60;99.90;;;;;;6276447;22;20010;-87
2020/12/10 20:20:15;;;;;;;31.80;16.27;;;1.60;99.90;;;;;;6276119;22;20008;-88
2020/12/10 20:22:41;;;;;;;30.20;16.30;;;1.60;99.90;;;;;;6277729;22;20084;-89
2020/12/10 20:25:12;;;;;;;31.80;17.17;;;1.60;99.90;;;;;;6275663;22;20004;-87
2020/12/10 20:27:38;;;;;;;32.40;17.10;;;1.60;99.90;;;;;;6275846;22;20000;-87
2020/12/10 20:30:07;;;;;;;30.67;16.67;;;1.60;99.90;;;;;;6275816;22;20061;-88
2020/12/10 20:32:34;;;;;;;31.00;15.63;;;1.60;99.90;;;;;;6275793;22;20011;-88
2020/12/10 20:35:00;;;;;;;28.20;15.40;;;1.60;99.90;;;;;;6276770;22;20003;-87
2020/12/10 20:37:26;;;;;;;29.40;17.13;;;1.60;99.90;;;;;;6276092;22;20502;-87
2020/12/10 20:39:52;;;;;;;28.77;15.10;;;1.60;99.90;;;;;;6275672;22;20008;-88
2020/12/10 20:42:17;;;;;;;29.70;16.33;;;1.60;99.90;;;;;;6276509;22;20012;-88
2020/12/10 20:44:44;;;;;;;25.40;15.10;;;1.70;99.90;;;;;;6280867;22;20054;-88
2020/12/10 20:47:10;;;;;;;28.77;16.23;;;1.70;99.90;;;;;;6281145;22;20025;-88
2020/12/10 20:49:36;;;;;;;30.40;16.07;;;1.70;99.90;;;;;;6309040;22;19995;-88
2020/12/10 20:52:02;;;;;;;32.13;17.10;;;1.70;99.90;;;;;;6281520;22;20081;-88
2020/12/10 20:54:28;;;;;;;28.80;15.63;;;1.60;99.90;;;;;;6279561;22;20007;-88
2020/12/10 20:56:53;;;;;;;28.23;16.47;;;1.70;99.90;;;;;;6281274;22;20007;-88
2020/12/10 20:59:19;;;;;;;29.70;16.00;;;1.60;99.90;;;;;;6280835;22;20099;-88
2020/12/10 21:01:45;;;;;;;29.27;15.90;;;1.60;99.90;;;;;;6280814;22;20011;-89
2020/12/10 21:04:12;;;;;;;33.90;17.93;;;1.60;99.90;;;;;;6280707;22;20010;-89
2020/12/10 21:06:38;;;;;;;29.00;16.67;;;1.60;99.90;;;;;;6281180;22;20014;-88
2020/12/10 21:09:09;;;;;;;26.57;15.07;;;1.60;99.90;;;;;;6281176;22;19999;-89
2020/12/10 21:11:38;;;;;;;29.13;16.23;;;1.60;99.90;;;;;;6281374;22;20090;-88
2020/12/10 21:14:04;;;;;;;29.87;16.77;;;1.60;99.90;;;;;;6280758;22;20003;-88
2020/12/10 21:16:30;;;;;;;29.40;16.67;;;1.60;99.90;;;;;;6254873;22;20011;-90
2020/12/10 21:18:56;;;;;;;29.33;16.60;;;1.60;99.90;;;;;;6280251;22;20003;-89
2020/12/10 21:21:24;;;;;;;28.83;16.17;;;1.60;99.90;;;;;;6280955;22;20057;-88
2020/12/10 21:26:35;;;;;;;28.13;15.77;;;1.60;99.90;;;;;;6308678;22;20014;-89
2020/12/10 21:29:00;;;;;;;28.17;15.10;;;1.60;99.90;;;;;;6280604;22;20031;-89
2020/12/10 21:31:26;;;;;;;27.13;16.30;;;1.60;99.90;;;;;;6300090;22;19991;-90
2020/12/10 21:33:59;;;;;;;27.67;16.03;;;1.60;99.90;;;;;;6306133;22;20002;-89
2020/12/10 21:36:25;;;;;;;27.30;15.57;;;1.60;99.90;;;;;;6286490;22;20373;-89
2020/12/10 21:38:51;;;;;;;29.23;16.97;;;1.60;99.90;;;;;;6281169;22;20006;-89
2020/12/10 21:41:16;;;;;;;30.77;16.23;;;1.60;99.90;;;;;;6280680;22;20390;-89
2020/12/10 21:43:43;;;;;;;28.67;16.10;;;1.60;99.90;;;;;;6280990;22;20091;-89
2020/12/10 21:46:09;;;;;;;27.40;15.83;;;1.60;99.90;;;;;;6280847;22;20010;-88
2020/12/10 21:48:34;;;;;;;30.77;17.17;;;1.60;99.90;;;;;;6281220;22;20007;-89
2020/12/10 21:51:00;;;;;;;29.10;15.50;;;1.60;99.90;;;;;;6281315;22;20034;-88
2020/12/10 21:53:25;;;;;;;31.40;16.40;;;1.60;99.90;;;;;;6280259;22;20079;-89
2020/12/10 21:55:51;;;;;;;31.53;17.60;;;1.60;99.90;;;;;;6289392;22;20023;-90
2020/12/10 21:58:17;;;;;;;29.43;16.43;;;1.60;99.90;;;;;;6300101;22;20067;-89
2020/12/10 22:00:42;;;;;;;28.40;15.63;;;1.60;99.90;;;;;;6301362;22;20068;-89
2020/12/10 22:03:08;;;;;;;31.97;16.67;;;1.60;99.90;;;;;;6301970;22;20003;-88
2020/12/10 22:05:34;;;;;;;29.33;17.27;;;1.60;99.90;;;;;;6298756;22;20018;-89
2020/12/10 22:08:00;;;;;;;32.97;17.27;;;1.60;99.90;;;;;;6280777;22;20003;-88
2020/12/10 22:10:26;;;;;;;30.37;16.80;;;1.60;99.90;;;;;;6279702;22;20034;-89
2020/12/10 22:12:55;;;;;;;29.80;16.47;;;1.60;99.90;;;;;;6280367;22;20322;-89
2020/12/10 22:15:21;;;;;;;30.57;15.37;;;1.60;99.90;;;;;;6307648;22;20437;-88
2020/12/10 22:17:46;;;;;;;29.77;16.30;;;1.60;99.90;;;;;;6279709;22;20007;-88
2020/12/10 22:20:12;;;;;;;28.70;16.00;;;1.60;99.90;;;;;;6280084;22;20010;-89
2020/12/10 22:22:38;;;;;;;31.93;16.93;;;1.60;99.90;;;;;;6279849;22;20381;-88
2020/12/10 22:25:04;;;;;;;29.37;16.43;;;1.60;99.90;;;;;;6279193;22;20011;-88
2020/12/10 22:27:30;;;;;;;29.17;16.73;;;1.60;99.90;;;;;;6308306;22;19996;-89
2020/12/10 22:29:55;;;;;;;30.10;16.17;;;1.60;99.90;;;;;;6279339;22;20014;-89
2020/12/10 22:32:24;;;;;;;31.37;17.00;;;1.60;99.90;;;;;;6279426;22;20021;-88
2020/12/10 22:34:56;;;;;;;31.33;16.43;;;1.60;99.90;;;;;;6280352;22;19999;-88
2020/12/10 22:37:25;;;;;;;33.70;17.38;;;1.60;99.90;;;;;;6280189;22;20559;-88
2020/12/10 22:39:51;;;;;;;31.60;17.17;;;1.60;99.90;;;;;;6279752;22;20035;-88
2020/12/10 22:42:16;;;;;;;31.80;17.00;;;1.60;99.90;;;;;;6279622;22;20007;-89
2020/12/10 22:44:42;;;;;;;30.23;16.60;;;1.60;99.90;;;;;;6279837;22;20497;-89
2020/12/10 22:47:08;;;;;;;32.13;16.83;;;1.60;99.90;;;;;;6280028;22;20003;-88
2020/12/10 22:49:33;;;;;;;30.97;17.27;;;1.60;99.90;;;;;;6280054;22;19999;-88
2020/12/10 22:52:02;;;;;;;28.23;16.07;;;1.50;99.90;;;;;;6281575;22;19999;-88
2020/12/10 22:54:28;;;;;;;30.07;17.57;;;1.50;99.90;;;;;;6279143;22;20003;-88
2020/12/10 22:56:54;;;;;;;28.90;17.07;;;1.50;99.90;;;;;;6280436;22;20007;-88
2020/12/10 22:59:20;;;;;;;29.70;16.67;;;1.50;99.90;;;;;;6280075;22;20003;-88
2020/12/10 23:01:50;;;;;;;34.50;17.63;;;1.50;99.90;;;;;;6278757;22;20010;-88
2020/12/10 23:04:16;;;;;;;30.60;17.57;;;1.50;99.90;;;;;;6282131;22;20380;-88
2020/12/10 23:06:41;;;;;;;30.20;17.50;;;1.50;99.90;;;;;;6281189;22;20000;-88
2020/12/10 23:09:10;;;;;;;28.83;16.83;;;1.50;99.90;;;;;;6280337;22;20010;-89